• Join FlightAware (Why Join?)
  • Login
  • US Flag 
11:08AM EDT


 

Airport Tracker/Info


-or-


 

Live Flight TrackerFlight Track Log ✈ DAL2069 ✈ 28-Apr-2013 ✈ KATL - KMCO

Flight Track Log - Related Links

Times and Time Zones

All times are in EDT time to prevent confusion due to time zone crossing. See the DAL2069 flight status page for this flight to view local times or setup timezone preferences in your user account.

Time Position Orientation Groundspeed Altitude Reporting Facility
EDT Latitude Longitude Course Direction KTS MPH feet Rate Location/Type
10:28AM 33.6167 -84.3500 168° South 219 252 3,500  Level Atlanta TRACON
10:29AM 33.5833 -84.2833 121° Southeast 284 327 6,400 2,340 Climbing Atlanta TRACON
10:30AM 33.3924 -84.2667 180° South  Level FlightAware Approximate
10:31AM 33.2807 -84.2409 168° South  Level FlightAware Approximate
10:31AM 33.3911 -84.2803 179° South 288 331 11,600  Level Atlanta Center
10:32AM 33.1692 -84.2131 168° South  Level FlightAware Approximate
10:32AM 33.2953 -84.2550 168° South 333 383 14,000  Level Atlanta Center
10:33AM 33.0577 -84.1852 168° South  Level FlightAware Approximate
10:33AM 33.1908 -84.2275 168° South 365 420 16,800  Level Atlanta Center
10:34AM 33.0844 -84.1975 167° South 384 442 19,000 2,100 Climbing Atlanta Center
10:35AM 32.9781 -84.1675 167° South 395 455 21,000 1,860 Climbing Atlanta Center
10:36AM 32.8611 -84.1206 161° South 418 481 22,800 1,800 Climbing Atlanta Center
10:37AM 32.7444 -84.0686 159° South 435 501 24,700 1,740 Climbing Atlanta Center
10:38AM 32.6233 -84.0192 161° South 452 520 26,300 1,560 Climbing Atlanta Center
10:39AM 32.5000 -83.9697 161° South 457 526 27,900 1,620 Climbing Atlanta Center
10:40AM 32.3728 -83.9183 161° South 467 537 29,600 1,680 Climbing Atlanta Center
10:42AM 32.1817 -83.8400 161° South 461 531 32,300 1,320 Climbing Jacksonville Center
10:43AM 32.0569 -83.7897 161° South 466 536 33,000 300 Climbing Jacksonville Center
10:44AM 31.9486 -83.7422 160° South 467 537 33,000 -60 Level Jacksonville Center
10:45AM 31.8217 -83.6847 159° South 467 537 32,900 -360 Descending Jacksonville Center
10:46AM 31.6989 -83.6228 157° South 478 550 32,300  Descending Jacksonville Center
10:47AM 31.5803 -83.5411 150° Southeast 485 558 33,000 -2,100 Climbing Jacksonville Center
10:48AM 31.4658 -83.4625 150° Southeast 485 558 28,100 -3,000 Descending Jacksonville Center
10:49AM 31.3492 -83.3792 149° Southeast 485 558 27,000 -600 Descending Jacksonville Center
10:50AM 31.2306 -83.3008 151° Southeast 485 558 27,000  Level Jacksonville Center
10:51AM 31.1139 -83.2203 149° Southeast 485 558 27,000 -420 Level Jacksonville Center
10:52AM 30.9969 -83.1422 150° Southeast 485 558 26,200 -1,020 Descending Jacksonville Center
10:53AM 30.8781 -83.0619 150° Southeast 485 558 25,000 -600 Descending Jacksonville Center
10:54AM 30.7656 -82.9819 149° Southeast 479 551 25,000 -60 Level Jacksonville Center
10:55AM 30.6319 -82.8975 151° Southeast 486 559 24,900  Descending Jacksonville Center
10:56AM 30.5233 -82.8444 157° South 480 552 25,000  Climbing Jacksonville Center
10:57AM 30.3981 -82.7939 161° South 480 552 24,900 -60 Descending Jacksonville Center
10:58AM 30.2831 -82.7458 160° South 462 532 24,900  Level Jacksonville Center
10:59AM 30.1828 -82.6811 151° Southeast 432 497 25,000  Climbing Jacksonville Center
11:00AM 30.0867 -82.5806 138° Southeast 417 480 25,000 -60 Level Jacksonville Center
11:01AM 30.0133 -82.4944 135° Southeast 422 486 24,900 -60 Descending Jacksonville Center
11:02AM 29.9150 -82.4253 149° Southeast 422 486 24,900  Level Jacksonville Center
11:03AM 29.7978 -82.3661 156° South 417 480 25,000 -720 Climbing Jacksonville Center
11:04AM 29.6911 -82.3164 158° South 412 474 23,500 -1,560 Descending Jacksonville Center
11:05AM 29.5761 -82.2622 158° South 426 490 21,900 -1,500 Descending Jacksonville Center
11:06AM 29.4608 -82.2081 158° South 438 504 20,500 -1,200 Descending Jacksonville Center
11:07AM 29.3478 -82.1539 157° South 444 511 19,600 -1,680 Descending Jacksonville Center
11:08AM 29.2369 -82.1000 157° South 437 503 17,200 -2,340 Descending Jacksonville Center
11:09AM 29.1322 -82.0511 158° South 426 490 15,000 -2,400 Descending Jacksonville Center
11:10AM 29.0422 -82.0092 158° South 389 448 12,500 -1,800 Descending Jacksonville Center
11:11AM 28.9647 -81.9717 157° South 344 396 11,400 -840 Descending Jacksonville Center
11:12AM 28.8914 -81.9369 157° South 305 351 10,900 -240 Descending Jacksonville Center
11:13AM 28.8408 -81.8614 127° Southeast 288 331 11,000 -300 Climbing Jacksonville Center
11:14AM 28.8025 -81.7767 117° Southeast 283 326 10,300 -780 Descending Jacksonville Center
11:15AM 28.7911 -81.6892 98° East 268 308 9,500 -720 Descending Jacksonville Center
11:16AM 28.7883 -81.6086 92° East 261 300 8,900 -720 Descending Jacksonville Center
11:17AM 28.7833 -81.5333 94° East 232 267 8,100 -1,200 Descending Orlando TRACON
11:18AM 28.7833 -81.4667 90° East 217 250 6,500 -1,680 Descending Orlando TRACON
11:19AM 28.7333 -81.4167 139° Southeast 215 247 4,800 -1,260 Descending Orlando TRACON
11:20AM 28.6833 -81.3667 139° Southeast 210 242 4,000 -420 Descending Orlando TRACON
11:21AM 28.6500 -81.3333 139° Southeast 164 189 3,900 -120 Descending Orlando TRACON